37.9F
Current conditions from King Hill
Updated every 5 minutes
 
  Monday March 1, 2021

Observations for Westford

Westford

44° 37' 38"N, 73° 02' 29"W, Elevation 850 ft.
Eastern Time

Hourly observations for the last 72 hours

Date Time Temperature (°F) Humi-
dity

(%)
Wind
(mph)
Pressure Rain (in)
Air Dew 6 Hour 1 Hr 3 Hr 6 Hr Day
Alt
(in)
Sea
Level

(mb)
Max Min
1 08:00 36.8 35.2 94 S 6 G 14 29.48 998.3 0.00
1 07:00 36.3 35.0 37.3 35.6 95 S 9 G 18 29.52 999.7 0.00
1 06:00 35.9 34.3 94 S 9 G 19 29.53 1000.0 0.00
1 05:00 35.7 33.6 92 S 8 G 14 29.53 1000.0 0.00
1 04:00 36.4 33.5 89 S 4 G 17 29.58 1001.6 0.00
1 03:00 36.6 32.5 85 SSE 6 G 14 29.61 1002.9 0.00
1 02:00 36.9 32.2 83 SSE 7 G 14 29.67 1004.9 0.00
1 01:00 37.3 32.0 40.1 37.3 81 SSE 10 G 17 29.72 1006.3 0.00
1 00:00 37.6 30.7 76 SE 6 G 12 29.76 1007.7 0.00
28 23:00 38.0 30.1 73 SSE 4 G 13 29.80 1009.3 0.00
28 22:00 39.4 29.4 67 SE 6 G 15 29.85 1010.8 0.00
28 21:00 39.8 27.8 62 S 7 G 12 29.88 1011.8 0.00
28 20:00 39.6 26.9 60 SSE 5 G 14 29.91 1012.8 0.00
28 19:00 39.4 26.3 41.1 37.9 59 SSE 0 G 8 29.95 1014.4 0.00
28 18:00 38.0 28.0 67 SSE 3 G 6 30.00 1015.8 0.00
28 17:00 39.5 28.7 65 SSE 1 G 6 30.03 1016.9 0.00
28 16:00 40.4 29.6 65 SSE 3 G 6 30.07 1018.3 0.00
28 15:00 40.5 29.3 64 S 3 G 9 30.10 1019.4 0.00
28 14:00 40.3 29.1 64 SSE 7 G 17 30.15 1020.9 0.00
28 13:00 40.8 28.4 41.2 27.9 61 S 6 G 11 30.19 1022.5 0.00
28 12:00 39.7 28.5 64 S 2 G 8 30.21 1023.2 0.00
28 11:00 39.1 28.3 65 S 2 G 8 30.24 1024.1 0.00
28 10:00 38.9 29.2 68 Calm 30.25 1024.3 0.00
28 09:00 35.5 28.7 76 W 0 G 3 30.26 1024.8 0.00
28 08:00 29.4 26.0 87 Calm 30.26 1024.7 0.00
28 07:00 28.4 25.3 36.0 28.3 88 Calm 30.24 1024.2 0.00
28 06:00 30.6 26.6 85 Calm 30.25 1024.5 0.00
28 05:00 32.7 27.5 81 W 1 G 3 30.26 1024.8 0.00
28 04:00 34.2 28.1 78 W 1 G 7 30.24 1024.0 0.00
28 03:00 34.7 28.9 79 WSW 0 G 5 30.22 1023.3 0.00
28 02:00 35.5 29.0 77 WNW 1 G 9 30.22 1023.3 0.00
28 01:00 35.7 29.5 38.4 34.8 78 W 4 G 10 30.20 1022.7 0.00
28 00:00 35.1 30.2 82 WNW 0 G 7 30.17 1021.5 0.00
27 23:00 35.2 30.0 81 W 2 G 10 30.14 1020.7 0.00
27 22:00 35.7 30.1 80 WNW 5 G 13 30.13 1020.2 0.00
27 21:00 36.5 29.7 76 W 9 G 19 30.08 1018.7 0.00
27 20:00 37.6 32.3 81 WSW 8 G 14 30.03 1016.9 0.00
27 19:00 38.3 34.5 39.2 34.3 86 WSW 10 G 16 29.99 1015.4 0.00
27 18:00 39.0 36.0 89 SW 6 G 15 29.93 1013.7 0.00
27 17:00 37.7 35.9 93 S 7 G 14 29.88 1012.0 0.00
27 16:00 37.5 35.7 93 SSE 8 G 20 29.85 1011.0 0.00
27 15:00 36.2 34.6 94 SSE 7 G 22 29.85 1011.0 0.00
27 14:00 35.2 33.6 94 S 9 G 16 29.86 1011.2 0.00
27 13:00 34.6 31.7 35.9 31.5 89 S 6 G 15 29.88 1011.9 0.00
27 12:00 35.9 30.9 82 SSE 7 G 17 29.92 1013.1 0.00
27 11:00 35.8 30.2 80 SSE 6 G 17 29.98 1015.3 0.00
27 10:00 32.9 29.5 87 SSE 7 G 15 30.06 1017.8 0.00
27 09:00 33.1 27.6 80 S 11 G 21 30.11 1019.8 0.00
27 08:00 32.1 26.0 78 S 13 G 25 30.13 1020.4 0.00
27 07:00 32.1 21.3 32.6 24.1 64 SSE 11 G 30 30.16 1021.5 0.00
27 06:00 31.6 18.9 59 SSE 7 G 24 30.19 1022.4 0.00
27 05:00 30.5 18.7 61 S 7 G 19 30.22 1023.4 0.00
27 04:00 29.5 18.5 63 S 6 G 16 30.24 1024.2 0.00
27 03:00 28.3 18.0 65 SSE 6 G 16 30.26 1024.8 0.00
27 02:00 25.2 16.8 70 SSE 3 G 9 30.29 1025.9 0.00
27 01:00 25.4 17.0 25.7 18.5 70 S 4 G 10 30.31 1026.5 0.00
27 00:00 25.1 16.4 69 SSE 4 G 7 30.32 1026.9 0.00
26 23:00 21.6 13.7 71 SSE 3 G 5 30.35 1027.9 0.00
26 22:00 20.4 12.8 72 Calm 30.36 1028.3 0.00
26 21:00 19.1 12.2 74 E 1 G 3 30.39 1029.0 0.00
26 20:00 20.6 12.7 71 E 0 G 1 30.35 1027.9 0.00
26 19:00 22.6 14.0 31.5 21.4 69 ESE 1 G 3 30.39 1029.2 0.00
26 18:00 24.7 13.9 63 S 0 G 2 30.43 1030.6 0.00
26 17:00 30.6 13.2 48 S 3 G 6 30.43 1030.4 0.00
26 16:00 31.3 12.4 45 S 3 G 8 30.44 1030.8 0.00
26 15:00 31.2 10.8 42 S 5 G 9 30.42 1030.0 0.00
26 14:00 29.5 9.2 42 S 2 G 8 30.40 1029.5 0.00
26 13:00 28.2 8.6 28.3 8.3 43 SSE 4 G 9 30.39 1029.3 0.00
26 12:00 26.3 8.3 46 SE 0 G 3 30.41 1029.9 0.00
26 11:00 23.7 6.4 47 SE 1 G 5 30.44 1030.7 0.00
26 10:00 21.4 7.3 54 WSW 0 G 1 30.44 1030.8 0.00
26 09:00 18.8 7.9 62 Calm 30.44 1031.0 0.00

Data generated by WxSolution Version 1.9.1.7, Build 2018.11.24.


 
 
Current Radar Loop:

Copyright © WestfordWeather.net 2007-2021. All rights reserved.